createdAt,value
2022-11-05T00:04:32.380Z,19.42
2022-11-05T00:09:33.346Z,19.39
2022-11-05T00:14:45.539Z,19.42
2022-11-05T00:19:38.926Z,19.35
2022-11-05T00:24:51.127Z,19.19
2022-11-05T00:29:44.857Z,19.41
2022-11-05T00:34:38.111Z,19.40
2022-11-05T00:39:31.906Z,19.39
2022-11-05T00:44:44.154Z,19.27
2022-11-05T00:49:38.276Z,19.39
2022-11-05T00:54:32.254Z,19.37
2022-11-05T00:59:27.448Z,19.37
2022-11-05T01:04:21.315Z,19.13
2022-11-05T01:09:15.650Z,19.34
2022-11-05T01:14:13.535Z,19.25
2022-11-05T01:19:09.937Z,19.28
2022-11-05T01:24:03.555Z,19.31
2022-11-05T01:28:58.554Z,19.34
2022-11-05T01:33:51.817Z,19.33
2022-11-05T01:38:44.623Z,19.33
2022-11-05T01:43:50.282Z,19.30
2022-11-05T01:48:43.783Z,19.32
2022-11-05T01:53:36.305Z,19.31
2022-11-05T01:58:52.642Z,19.31
2022-11-05T02:03:47.480Z,19.17
2022-11-05T02:09:27.965Z,19.29
2022-11-05T02:14:21.983Z,19.23
2022-11-05T02:19:27.306Z,19.27
2022-11-05T02:24:53.172Z,19.27
2022-11-05T02:30:00.196Z,19.14
2022-11-05T02:35:09.922Z,19.22
2022-11-05T02:40:15.680Z,19.25
2022-11-05T02:45:38.261Z,19.19
2022-11-05T02:50:38.620Z,19.21
2022-11-05T02:55:39.843Z,19.20
2022-11-05T03:01:06.905Z,19.19
2022-11-05T03:06:29.667Z,19.18
2022-11-05T03:11:27.298Z,19.05
2022-11-05T03:16:50.018Z,19.08
2022-11-05T03:22:12.637Z,19.19
2022-11-05T03:27:20.457Z,19.16
2022-11-05T03:32:16.115Z,19.18
2022-11-05T03:37:11.803Z,19.11
2022-11-05T03:42:07.847Z,19.18
2022-11-05T03:47:11.725Z,19.05
2022-11-05T03:52:15.118Z,19.17
2022-11-05T03:57:16.029Z,19.17
2022-11-05T04:02:11.680Z,19.02
2022-11-05T04:07:23.974Z,19.07
2022-11-05T04:12:35.166Z,19.15
2022-11-05T04:17:29.229Z,19.13
2022-11-05T04:22:42.887Z,19.11
2022-11-05T04:27:37.089Z,19.07
2022-11-05T04:32:30.984Z,19.06
2022-11-05T04:37:24.964Z,19.08
2022-11-05T04:42:19.096Z,18.95
2022-11-05T04:47:12.439Z,19.07
2022-11-05T04:52:06.111Z,18.99
2022-11-05T04:57:00.349Z,18.90
2022-11-05T05:01:53.712Z,18.93
2022-11-05T05:06:47.589Z,18.91
2022-11-05T05:11:41.855Z,19.02
2022-11-05T05:16:35.105Z,19.01
2022-11-05T05:21:41.919Z,19.01
2022-11-05T05:26:35.653Z,18.98
2022-11-05T05:31:28.938Z,19.00
2022-11-05T05:36:23.357Z,18.96
2022-11-05T05:41:17.188Z,18.98
2022-11-05T05:46:13.482Z,18.97
2022-11-05T05:51:09.959Z,18.97
2022-11-05T05:56:04.411Z,18.89
2022-11-05T06:01:01.726Z,18.96
2022-11-05T06:05:54.847Z,18.95
2022-11-05T06:11:10.696Z,18.95
2022-11-05T06:16:06.448Z,18.96
2022-11-05T06:21:04.712Z,18.81
2022-11-05T06:26:00.644Z,18.93
2022-11-05T06:30:53.370Z,18.89
2022-11-05T06:35:46.961Z,18.75
2022-11-05T06:40:41.028Z,18.89
2022-11-05T06:45:34.976Z,18.88
2022-11-05T06:50:29.885Z,18.73
2022-11-05T06:55:24.483Z,18.85
2022-11-05T07:00:19.276Z,18.83
2022-11-05T07:05:12.826Z,18.81
2022-11-05T07:10:09.515Z,18.56
2022-11-05T07:15:03.646Z,18.76
2022-11-05T07:19:57.174Z,18.65
2022-11-05T07:24:51.170Z,18.55
2022-11-05T07:29:44.821Z,18.61
2022-11-05T07:34:38.847Z,18.45
2022-11-05T07:39:32.865Z,18.53
2022-11-05T07:44:26.179Z,18.51
2022-11-05T07:49:23.911Z,18.53
2022-11-05T07:54:17.759Z,18.52
2022-11-05T07:59:12.055Z,18.50
2022-11-05T08:04:05.799Z,18.52
2022-11-05T08:08:59.999Z,18.50
2022-11-05T08:13:53.955Z,18.41
2022-11-05T08:18:47.779Z,18.43
2022-11-05T08:23:42.948Z,18.53
2022-11-05T08:28:36.801Z,18.59
2022-11-05T08:33:32.292Z,18.53
2022-11-05T08:38:26.293Z,18.57
2022-11-05T08:43:18.880Z,18.67
2022-11-05T08:48:17.794Z,18.58
2022-11-05T08:53:12.097Z,18.62
2022-11-05T08:58:08.419Z,18.62
2022-11-05T09:03:03.133Z,18.64
2022-11-05T09:08:00.924Z,18.56
2022-11-05T09:12:55.105Z,18.58
2022-11-05T09:17:49.343Z,18.54
2022-11-05T09:22:43.619Z,18.56
2022-11-05T09:27:37.507Z,18.53
2022-11-05T09:32:32.425Z,18.66
2022-11-05T09:37:25.770Z,18.64
2022-11-05T09:42:24.189Z,18.64
2022-11-05T09:47:39.002Z,18.66
2022-11-05T09:52:34.147Z,18.57
2022-11-05T09:57:42.497Z,18.59
2022-11-05T10:02:42.497Z,18.61
2022-11-05T10:08:00.657Z,18.58
2022-11-05T10:12:57.706Z,18.64
2022-11-05T10:17:56.854Z,18.61
2022-11-05T10:22:56.896Z,18.76
2022-11-05T10:27:55.114Z,18.76
2022-11-05T10:32:53.539Z,18.80
2022-11-05T10:37:47.208Z,18.65
2022-11-05T10:42:51.967Z,18.77
2022-11-05T10:48:00.670Z,18.80
2022-11-05T10:52:56.710Z,18.82
2022-11-05T10:57:51.044Z,18.63
2022-11-05T11:02:56.591Z,18.65
2022-11-05T11:08:25.412Z,18.67
2022-11-05T11:13:50.725Z,18.73
2022-11-05T11:18:45.851Z,18.63
2022-11-05T11:23:41.410Z,18.71
2022-11-05T11:28:33.569Z,18.78
2022-11-05T11:33:28.765Z,18.62
2022-11-05T11:38:25.459Z,18.80
2022-11-05T11:43:30.629Z,18.82
2022-11-05T11:48:28.414Z,18.82
2022-11-05T11:53:20.921Z,18.82
2022-11-05T11:58:18.686Z,18.82
2022-11-05T12:03:25.860Z,18.86
2022-11-05T12:08:44.375Z,18.76
2022-11-05T12:13:53.127Z,18.88
2022-11-05T12:18:55.298Z,18.87
2022-11-05T12:24:00.606Z,18.87
2022-11-05T12:29:19.832Z,18.87
2022-11-05T12:34:18.173Z,18.87
2022-11-05T12:39:34.155Z,18.82
2022-11-05T12:44:49.882Z,18.87
2022-11-05T12:50:19.016Z,18.86
2022-11-05T12:55:19.133Z,18.86
2022-11-05T13:00:26.365Z,18.85
2022-11-05T13:05:38.208Z,18.71
2022-11-05T13:10:35.326Z,18.83
2022-11-05T13:15:54.685Z,18.78
2022-11-05T13:21:08.761Z,18.78
2022-11-05T13:26:11.786Z,18.79
2022-11-05T13:31:13.931Z,18.78
2022-11-05T13:36:28.510Z,18.70
2022-11-05T13:41:21.791Z,18.88
2022-11-05T13:46:17.590Z,18.91
2022-11-05T13:51:22.682Z,18.92
2022-11-05T13:56:53.219Z,18.94
2022-11-05T14:02:02.637Z,18.77
2022-11-05T14:07:27.012Z,18.95
2022-11-05T14:12:27.326Z,18.83
2022-11-05T14:17:35.202Z,18.95
2022-11-05T14:22:33.420Z,18.94
2022-11-05T14:27:25.907Z,18.96
2022-11-05T14:32:38.029Z,18.97
2022-11-05T14:37:34.885Z,18.82
2022-11-05T14:42:30.305Z,18.90
2022-11-05T14:47:25.825Z,18.93
2022-11-05T14:52:20.729Z,18.92
2022-11-05T14:57:17.547Z,18.89
2022-11-05T15:02:18.878Z,18.69
2022-11-05T15:07:11.741Z,18.91
2022-11-05T15:12:12.020Z,18.76
2022-11-05T15:17:23.475Z,18.88
2022-11-05T15:22:29.757Z,18.73
2022-11-05T15:27:43.006Z,18.87
2022-11-05T15:32:38.588Z,18.82
2022-11-05T15:37:32.638Z,18.85
2022-11-05T15:42:27.651Z,18.76
2022-11-05T15:47:21.800Z,18.85
2022-11-05T15:52:16.713Z,18.88
2022-11-05T15:57:23.939Z,18.83
2022-11-05T16:02:29.281Z,18.87
2022-11-05T16:08:04.736Z,18.87
2022-11-05T16:13:18.174Z,18.84
2022-11-05T16:18:41.475Z,18.84
2022-11-05T16:24:00.527Z,18.85
2022-11-05T16:28:54.424Z,18.86
2022-11-05T16:33:48.740Z,18.91
2022-11-05T16:38:43.267Z,18.95
2022-11-05T16:43:37.655Z,18.84
2022-11-05T16:48:30.743Z,19.01
2022-11-05T16:53:24.775Z,18.83
2022-11-05T16:58:26.943Z,18.94
2022-11-05T17:03:21.375Z,19.05
2022-11-05T17:08:15.836Z,19.07
2022-11-05T17:13:19.870Z,19.08
2022-11-05T17:18:18.149Z,18.95
2022-11-05T17:23:17.918Z,18.97
2022-11-05T17:28:12.272Z,19.04
2022-11-05T17:33:07.362Z,19.00
2022-11-05T17:38:01.551Z,19.00
2022-11-05T17:42:54.561Z,19.11
2022-11-05T17:47:47.890Z,19.16
2022-11-05T17:52:40.447Z,19.04
2022-11-05T17:57:34.472Z,19.03
2022-11-05T18:02:30.286Z,19.15
2022-11-05T18:07:24.640Z,19.15
2022-11-05T18:12:18.494Z,18.95
2022-11-05T18:17:11.789Z,19.17
2022-11-05T18:22:05.119Z,19.07
2022-11-05T18:26:59.076Z,19.13
2022-11-05T18:31:53.150Z,19.16
2022-11-05T18:36:52.053Z,19.16
2022-11-05T18:41:48.027Z,19.12
2022-11-05T18:46:57.607Z,19.23
2022-11-05T18:51:52.317Z,19.27
2022-11-05T18:56:47.426Z,19.31
2022-11-05T19:01:40.784Z,19.33
2022-11-05T19:06:35.401Z,19.23
2022-11-05T19:11:28.703Z,19.30
2022-11-05T19:16:24.868Z,19.19
2022-11-05T19:21:21.829Z,19.28
2022-11-05T19:26:21.834Z,19.26
2022-11-05T19:31:22.334Z,19.23
2022-11-05T19:36:17.314Z,19.25
2022-11-05T19:41:14.898Z,19.11
2022-11-05T19:46:08.641Z,19.19
2022-11-05T19:51:05.537Z,19.20
2022-11-05T19:55:59.267Z,19.17
2022-11-05T20:00:55.646Z,19.05
2022-11-05T20:05:49.826Z,19.12
2022-11-05T20:10:43.486Z,19.00
2022-11-05T20:15:41.163Z,18.86
2022-11-05T20:20:35.374Z,18.93
2022-11-05T20:25:29.410Z,18.83
2022-11-05T20:30:22.824Z,18.98
2022-11-05T20:35:16.291Z,18.93
2022-11-05T20:40:08.645Z,18.96
2022-11-05T20:45:03.262Z,18.95
2022-11-05T20:49:58.457Z,18.90
2022-11-05T20:54:52.158Z,18.71
2022-11-05T20:59:45.255Z,18.71
2022-11-05T21:04:40.706Z,18.92
2022-11-05T21:09:34.687Z,18.93
2022-11-05T21:14:28.012Z,18.69
2022-11-05T21:19:24.670Z,18.91
2022-11-05T21:24:18.562Z,18.77
2022-11-05T21:29:13.210Z,18.80
2022-11-05T21:34:06.629Z,18.89
2022-11-05T21:39:00.310Z,18.87
2022-11-05T21:43:53.817Z,18.86
2022-11-05T21:48:47.372Z,18.73
2022-11-05T21:53:59.295Z,18.73
2022-11-05T21:59:11.530Z,18.72
2022-11-05T22:04:05.504Z,18.82
2022-11-05T22:08:59.559Z,18.81
2022-11-05T22:13:53.268Z,18.72
2022-11-05T22:18:47.073Z,18.75
2022-11-05T22:23:41.185Z,18.79
2022-11-05T22:28:34.072Z,18.76
2022-11-05T22:33:27.045Z,18.75
2022-11-05T22:38:20.465Z,18.76
2022-11-05T22:43:13.576Z,18.67
2022-11-05T22:48:08.695Z,18.75
2022-11-05T22:53:02.239Z,18.67
2022-11-05T22:58:00.076Z,18.73
2022-11-05T23:02:55.258Z,18.73
2022-11-05T23:08:06.545Z,18.50
2022-11-05T23:13:00.437Z,18.60
2022-11-05T23:18:12.804Z,18.67
2022-11-05T23:23:28.510Z,18.65
2022-11-05T23:28:22.513Z,18.56
2022-11-05T23:33:16.044Z,18.67
2022-11-05T23:38:28.438Z,18.66
2022-11-05T23:43:40.578Z,18.67
2022-11-05T23:48:38.571Z,18.66
2022-11-05T23:53:33.411Z,18.64
2022-11-05T23:58:26.813Z,18.62
